sensor_id;sensor_type;location;lat;lon;timestamp;pressure;altitude;pressure_sealevel;temperature;humidity
63399;BME280;49533;-34.520;150.798;2023-04-06T00:00:34;100482.50;;;23.12;55.41
63399;BME280;49533;-34.520;150.798;2023-04-06T00:03:01;100507.06;;;23.28;55.35
63399;BME280;49533;-34.520;150.798;2023-04-06T00:05:29;100506.28;;;23.35;55.30
63399;BME280;49533;-34.520;150.798;2023-04-06T00:07:58;100520.53;;;23.40;55.34
63399;BME280;49533;-34.520;150.798;2023-04-06T00:10:25;100422.25;;;22.77;55.04
63399;BME280;49533;-34.520;150.798;2023-04-06T00:12:53;100454.38;;;22.99;55.15
63399;BME280;49533;-34.520;150.798;2023-04-06T00:15:20;100502.31;;;23.36;55.00
63399;BME280;49533;-34.520;150.798;2023-04-06T00:17:47;100448.03;;;23.03;55.19
63399;BME280;49533;-34.520;150.798;2023-04-06T00:20:15;100459.53;;;23.15;55.05
63399;BME280;49533;-34.520;150.798;2023-04-06T00:22:44;100493.59;;;23.34;55.20
63399;BME280;49533;-34.520;150.798;2023-04-06T00:25:11;100509.06;;;23.53;54.96
63399;BME280;49533;-34.520;150.798;2023-04-06T00:27:38;100497.97;;;23.46;55.15
63399;BME280;49533;-34.520;150.798;2023-04-06T00:30:06;100511.84;;;23.56;55.02
63399;BME280;49533;-34.520;150.798;2023-04-06T00:32:34;100513.44;;;23.61;54.94
63399;BME280;49533;-34.520;150.798;2023-04-06T00:35:03;100470.25;;;23.46;54.66
63399;BME280;49533;-34.520;150.798;2023-04-06T00:37:31;100458.34;;;23.41;54.61
63399;BME280;49533;-34.520;150.798;2023-04-06T00:39:58;100505.91;;;23.72;54.35
63399;BME280;49533;-34.520;150.798;2023-04-06T00:42:25;100463.53;;;23.50;54.17
63399;BME280;49533;-34.520;150.798;2023-04-06T00:44:54;100466.28;;;23.54;54.02
63399;BME280;49533;-34.520;150.798;2023-04-06T00:47:22;100493.63;;;23.84;54.21
63399;BME280;49533;-34.520;150.798;2023-04-06T00:49:52;100441.72;;;23.63;53.96
63399;BME280;49533;-34.520;150.798;2023-04-06T00:52:19;100469.47;;;23.81;53.72
63399;BME280;49533;-34.520;150.798;2023-04-06T00:54:46;100484.88;;;24.00;53.87
63399;BME280;49533;-34.520;150.798;2023-04-06T00:57:13;100477.34;;;24.04;53.93
63399;BME280;49533;-34.520;150.798;2023-04-06T00:59:41;100436.16;;;23.84;53.83
63399;BME280;49533;-34.520;150.798;2023-04-06T01:02:08;100471.00;;;24.07;53.88
63399;BME280;49533;-34.520;150.798;2023-04-06T01:04:36;100426.63;;;23.89;53.69
63399;BME280;49533;-34.520;150.798;2023-04-06T01:07:03;100453.53;;;24.10;53.62
63399;BME280;49533;-34.520;150.798;2023-04-06T01:09:30;100405.25;;;23.79;53.43
63399;BME280;49533;-34.520;150.798;2023-04-06T01:11:58;100444.44;;;23.99;53.64
63399;BME280;49533;-34.520;150.798;2023-04-06T01:14:25;100458.28;;;24.13;53.39
63399;BME280;49533;-34.520;150.798;2023-04-06T01:16:53;100448.78;;;24.14;53.59
63399;BME280;49533;-34.520;150.798;2023-04-06T01:19:22;100391.41;;;23.75;53.76
63399;BME280;49533;-34.520;150.798;2023-04-06T01:21:49;100403.28;;;23.83;53.57
63399;BME280;49533;-34.520;150.798;2023-04-06T01:24:20;100399.69;;;23.90;53.43
63399;BME280;49533;-34.520;150.798;2023-04-06T01:26:47;100449.53;;;24.22;53.40
63399;BME280;49533;-34.520;150.798;2023-04-06T01:29:14;100442.00;;;24.15;53.43
63399;BME280;49533;-34.520;150.798;2023-04-06T01:31:42;100388.22;;;23.84;53.63
63399;BME280;49533;-34.520;150.798;2023-04-06T01:34:09;100440.41;;;24.21;51.82
63399;BME280;49533;-34.520;150.798;2023-04-06T01:36:36;100431.34;;;24.14;52.91
63399;BME280;49533;-34.520;150.798;2023-04-06T01:39:03;100449.53;;;24.18;52.78
63399;BME280;49533;-34.520;150.798;2023-04-06T01:41:30;100443.97;;;24.18;53.20
63399;BME280;49533;-34.520;150.798;2023-04-06T01:43:57;100430.91;;;24.19;52.51
63399;BME280;49533;-34.520;150.798;2023-04-06T01:46:24;100378.25;;;23.90;52.45
63399;BME280;49533;-34.520;150.798;2023-04-06T01:48:52;100424.94;;;24.20;52.46
63399;BME280;49533;-34.520;150.798;2023-04-06T01:51:19;100419.38;;;24.20;52.47
63399;BME280;49533;-34.520;150.798;2023-04-06T01:53:46;100429.28;;;24.25;52.44
63399;BME280;49533;-34.520;150.798;2023-04-06T01:56:15;100397.63;;;24.08;52.48
63399;BME280;49533;-34.520;150.798;2023-04-06T01:58:42;100411.03;;;24.27;52.48
63399;BME280;49533;-34.520;150.798;2023-04-06T02:01:09;100303.88;;;23.49;52.78
63399;BME280;49533;-34.520;150.798;2023-04-06T02:03:36;100408.28;;;24.20;51.42
63399;BME280;49533;-34.520;150.798;2023-04-06T02:06:04;100375.88;;;23.96;51.58
63399;BME280;49533;-34.520;150.798;2023-04-06T02:08:31;100371.09;;;24.00;52.07
63399;BME280;49533;-34.520;150.798;2023-04-06T02:10:58;100409.06;;;24.21;52.32
63399;BME280;49533;-34.520;150.798;2023-04-06T02:13:26;100395.66;;;24.08;52.57
63399;BME280;49533;-34.520;150.798;2023-04-06T02:15:53;100390.09;;;24.12;52.62
63399;BME280;49533;-34.520;150.798;2023-04-06T02:18:20;100390.03;;;24.23;52.95
63399;BME280;49533;-34.520;150.798;2023-04-06T02:20:48;100390.06;;;24.19;52.32
63399;BME280;49533;-34.520;150.798;2023-04-06T02:23:15;100334.31;;;23.81;52.42
63399;BME280;49533;-34.520;150.798;2023-04-06T02:25:42;100361.22;;;23.99;52.66
63399;BME280;49533;-34.520;150.798;2023-04-06T02:28:09;100357.59;;;24.05;53.01
63399;BME280;49533;-34.520;150.798;2023-04-06T02:30:36;100213.31;;;23.14;53.14
63399;BME280;49533;-34.520;150.798;2023-04-06T02:33:03;100339.00;;;23.95;53.30
63399;BME280;49533;-34.520;150.798;2023-04-06T02:35:31;100363.88;;;24.20;53.54
63399;BME280;49533;-34.520;150.798;2023-04-06T02:37:58;100286.41;;;23.74;53.52
63399;BME280;49533;-34.520;150.798;2023-04-06T02:40:25;100305.34;;;23.90;53.40
63399;BME280;49533;-34.520;150.798;2023-04-06T02:42:52;100302.56;;;23.93;53.38
63399;BME280;49533;-34.520;150.798;2023-04-06T02:45:20;100219.13;;;23.41;53.43
63399;BME280;49533;-34.520;150.798;2023-04-06T02:47:47;100331.41;;;24.10;53.59
63399;BME280;49533;-34.520;150.798;2023-04-06T02:50:14;100337.31;;;24.19;54.08
63399;BME280;49533;-34.520;150.798;2023-04-06T02:52:41;100333.69;;;24.26;53.95
63399;BME280;49533;-34.520;150.798;2023-04-06T02:55:09;100341.59;;;24.31;54.35
63399;BME280;49533;-34.520;150.798;2023-04-06T02:57:36;100293.41;;;24.00;54.25
63399;BME280;49533;-34.520;150.798;2023-04-06T03:00:03;100330.13;;;24.29;54.98
63399;BME280;49533;-34.520;150.798;2023-04-06T03:02:30;100327.72;;;24.31;54.69
63399;BME280;49533;-34.520;150.798;2023-04-06T03:04:57;100304.44;;;24.14;54.86
63399;BME280;49533;-34.520;150.798;2023-04-06T03:07:24;100307.59;;;24.16;54.65
63399;BME280;49533;-34.520;150.798;2023-04-06T03:09:52;100275.53;;;24.04;54.79
63399;BME280;49533;-34.520;150.798;2023-04-06T03:12:19;100208.41;;;23.54;54.67
63399;BME280;49533;-34.520;150.798;2023-04-06T03:14:46;100265.66;;;24.00;54.67
63399;BME280;49533;-34.520;150.798;2023-04-06T03:17:14;100290.13;;;24.19;54.58
63399;BME280;49533;-34.520;150.798;2023-04-06T03:19:41;100281.41;;;24.17;54.95
63399;BME280;49533;-34.520;150.798;2023-04-06T03:22:08;100256.91;;;24.05;55.47
63399;BME280;49533;-34.520;150.798;2023-04-06T03:24:35;100284.50;;;24.30;55.20
63399;BME280;49533;-34.520;150.798;2023-04-06T03:27:02;100164.38;;;23.63;55.32
63399;BME280;49533;-34.520;150.798;2023-04-06T03:29:29;100257.56;;;24.27;55.28
63399;BME280;49533;-34.520;150.798;2023-04-06T03:31:57;100258.78;;;24.22;54.81
63399;BME280;49533;-34.520;150.798;2023-04-06T03:34:24;100233.94;;;23.97;54.72
63399;BME280;49533;-34.520;150.798;2023-04-06T03:36:51;100248.88;;;24.21;54.55
63399;BME280;49533;-34.520;150.798;2023-04-06T03:39:18;100177.00;;;23.78;54.17
63399;BME280;49533;-34.520;150.798;2023-04-06T03:41:46;100218.00;;;24.12;54.22
63399;BME280;49533;-34.520;150.798;2023-04-06T03:44:13;100186.41;;;23.95;54.14
63399;BME280;49533;-34.520;150.798;2023-04-06T03:46:41;100260.63;;;24.47;53.99
63399;BME280;49533;-34.520;150.798;2023-04-06T03:49:08;100199.75;;;24.15;53.93
63399;BME280;49533;-34.520;150.798;2023-04-06T03:51:35;100228.94;;;24.34;53.50
63399;BME280;49533;-34.520;150.798;2023-04-06T03:54:02;100209.16;;;24.28;53.58
63399;BME280;49533;-34.520;150.798;2023-04-06T03:56:29;100185.47;;;24.13;53.06
63399;BME280;49533;-34.520;150.798;2023-04-06T03:58:56;100245.44;;;24.59;53.42
63399;BME280;49533;-34.520;150.798;2023-04-06T04:01:23;100241.47;;;24.60;53.02
63399;BME280;49533;-34.520;150.798;2023-04-06T04:03:51;100244.22;;;24.63;53.02
63399;BME280;49533;-34.520;150.798;2023-04-06T04:06:18;100254.94;;;24.65;52.97
63399;BME280;49533;-34.520;150.798;2023-04-06T04:08:45;100222.50;;;24.51;52.39
63399;BME280;49533;-34.520;150.798;2023-04-06T04:11:12;100176.28;;;24.26;52.27
63399;BME280;49533;-34.520;150.798;2023-04-06T04:13:41;100230.28;;;24.67;52.41
63399;BME280;49533;-34.520;150.798;2023-04-06T04:16:09;100228.34;;;24.64;52.43
63399;BME280;49533;-34.520;150.798;2023-04-06T04:18:36;100165.22;;;24.16;51.82
63399;BME280;49533;-34.520;150.798;2023-04-06T04:21:03;100164.00;;;24.24;51.86
63399;BME280;49533;-34.520;150.798;2023-04-06T04:23:30;100201.78;;;24.59;51.92
63399;BME280;49533;-34.520;150.798;2023-04-06T04:25:57;100182.06;;;24.46;51.47
63399;BME280;49533;-34.520;150.798;2023-04-06T04:28:24;100217.16;;;24.71;52.04
63399;BME280;49533;-34.520;150.798;2023-04-06T04:30:51;100164.28;;;24.37;51.63
63399;BME280;49533;-34.520;150.798;2023-04-06T04:33:18;100206.00;;;24.74;51.59
63399;BME280;49533;-34.520;150.798;2023-04-06T04:35:46;100167.00;;;24.47;51.71
63399;BME280;49533;-34.520;150.798;2023-04-06T04:38:13;100199.66;;;24.74;51.62
63399;BME280;49533;-34.520;150.798;2023-04-06T04:40:40;100210.78;;;24.74;51.56
63399;BME280;49533;-34.520;150.798;2023-04-06T04:43:07;100193.78;;;24.68;51.88
63399;BME280;49533;-34.520;150.798;2023-04-06T04:45:34;100157.91;;;24.40;51.36
63399;BME280;49533;-34.520;150.798;2023-04-06T04:48:01;100166.97;;;24.44;51.25
63399;BME280;49533;-34.520;150.798;2023-04-06T04:50:28;100189.91;;;24.59;51.54
63399;BME280;49533;-34.520;150.798;2023-04-06T04:52:56;100166.97;;;24.44;51.83
63399;BME280;49533;-34.520;150.798;2023-04-06T04:55:23;100189.13;;;24.58;51.33
63399;BME280;49533;-34.520;150.798;2023-04-06T04:57:50;100195.50;;;24.55;51.43
63399;BME280;49533;-34.520;150.798;2023-04-06T05:00:17;100201.88;;;24.52;51.84
63399;BME280;49533;-34.520;150.798;2023-04-06T05:02:44;100191.56;;;24.49;51.23
63399;BME280;49533;-34.520;150.798;2023-04-06T05:05:11;100162.41;;;24.23;51.05
63399;BME280;49533;-34.520;150.798;2023-04-06T05:07:38;100093.00;;;23.78;50.98
63399;BME280;49533;-34.520;150.798;2023-04-06T05:10:06;100169.94;;;24.22;50.81
63399;BME280;49533;-34.520;150.798;2023-04-06T05:12:33;100134.41;;;24.03;50.77
63399;BME280;49533;-34.520;150.798;2023-04-06T05:15:01;100187.63;;;24.43;50.86
63399;BME280;49533;-34.520;150.798;2023-04-06T05:17:29;100178.09;;;24.44;50.48
63399;BME280;49533;-34.520;150.798;2023-04-06T05:19:56;100196.38;;;24.45;50.59
63399;BME280;49533;-34.520;150.798;2023-04-06T05:22:23;100144.59;;;24.20;50.83
63399;BME280;49533;-34.520;150.798;2023-04-06T05:24:51;100143.38;;;24.25;51.51
63399;BME280;49533;-34.520;150.798;2023-04-06T05:27:18;100154.78;;;24.34;51.08
63399;BME280;49533;-34.520;150.798;2023-04-06T05:29:45;100174.16;;;24.41;51.00
63399;BME280;49533;-34.520;150.798;2023-04-06T05:32:12;100126.03;;;24.10;51.37
63399;BME280;49533;-34.520;150.798;2023-04-06T05:34:39;100057.78;;;23.64;51.74
63399;BME280;49533;-34.520;150.798;2023-04-06T05:37:10;100157.53;;;24.38;51.73
63399;BME280;49533;-34.520;150.798;2023-04-06T05:39:39;100140.25;;;24.16;51.96
63399;BME280;49533;-34.520;150.798;2023-04-06T05:42:06;100156.75;;;24.34;51.96
63399;BME280;49533;-34.520;150.798;2023-04-06T05:44:33;100086.59;;;23.84;52.21
63399;BME280;49533;-34.520;150.798;2023-04-06T05:47:01;100117.31;;;24.08;52.36
63399;BME280;49533;-34.520;150.798;2023-04-06T05:49:28;100099.66;;;23.87;51.99
63399;BME280;49533;-34.520;150.798;2023-04-06T05:51:56;100133.56;;;24.09;52.18
63399;BME280;49533;-34.520;150.798;2023-04-06T05:54:23;100141.50;;;24.11;52.04
63399;BME280;49533;-34.520;150.798;2023-04-06T05:56:50;100135.56;;;24.09;51.53
63399;BME280;49533;-34.520;150.798;2023-04-06T05:59:17;100098.56;;;23.71;51.48
63399;BME280;49533;-34.520;150.798;2023-04-06T06:01:44;100121.84;;;23.87;51.64
63399;BME280;49533;-34.520;150.798;2023-04-06T06:04:11;100140.34;;;24.08;51.16
63399;BME280;49533;-34.520;150.798;2023-04-06T06:06:38;100114.69;;;23.94;51.15
63399;BME280;49533;-34.520;150.798;2023-04-06T06:09:05;100090.25;;;23.67;51.56
63399;BME280;49533;-34.520;150.798;2023-04-06T06:11:32;100088.34;;;23.57;52.06
63399;BME280;49533;-34.520;150.798;2023-04-06T06:13:59;100109.75;;;23.60;52.43
63399;BME280;49533;-34.520;150.798;2023-04-06T06:16:26;100128.63;;;23.79;52.34
63399;BME280;49533;-34.520;150.798;2023-04-06T06:18:54;100098.59;;;23.63;52.89
63399;BME280;49533;-34.520;150.798;2023-04-06T06:21:21;100100.56;;;23.70;53.14
63399;BME280;49533;-34.520;150.798;2023-04-06T06:23:48;100133.75;;;23.88;53.36
63399;BME280;49533;-34.520;150.798;2023-04-06T06:26:16;100129.38;;;23.91;53.58
63399;BME280;49533;-34.520;150.798;2023-04-06T06:28:44;100039.44;;;23.25;53.67
63399;BME280;49533;-34.520;150.798;2023-04-06T06:31:11;100078.06;;;23.54;53.58
63399;BME280;49533;-34.520;150.798;2023-04-06T06:33:38;100137.31;;;23.89;54.19
63399;BME280;49533;-34.520;150.798;2023-04-06T06:36:06;100120.38;;;23.72;53.88
63399;BME280;49533;-34.520;150.798;2023-04-06T06:38:33;100078.53;;;23.45;54.05
63399;BME280;49533;-34.520;150.798;2023-04-06T06:41:00;100126.69;;;23.69;54.73
63399;BME280;49533;-34.520;150.798;2023-04-06T06:43:27;100112.13;;;23.58;54.38
63399;BME280;49533;-34.520;150.798;2023-04-06T06:45:54;100124.72;;;23.70;54.69
63399;BME280;49533;-34.520;150.798;2023-04-06T06:48:21;100028.50;;;23.04;54.96
63399;BME280;49533;-34.520;150.798;2023-04-06T06:50:48;100041.88;;;23.16;55.41
63399;BME280;49533;-34.520;150.798;2023-04-06T06:53:16;100123.94;;;23.69;55.43
63399;BME280;49533;-34.520;150.798;2023-04-06T06:55:43;100114.47;;;23.63;55.13
63399;BME280;49533;-34.520;150.798;2023-04-06T06:58:11;100013.38;;;23.15;54.91
63399;BME280;49533;-34.520;150.798;2023-04-06T07:00:38;100129.72;;;23.93;54.15
63399;BME280;49533;-34.520;150.798;2023-04-06T07:03:06;100090.59;;;23.80;53.96
63399;BME280;49533;-34.520;150.798;2023-04-06T07:05:33;100127.63;;;24.11;54.13
63399;BME280;49533;-34.520;150.798;2023-04-06T07:08:00;100070.81;;;23.74;54.00
63399;BME280;49533;-34.520;150.798;2023-04-06T07:10:27;100133.81;;;24.29;53.52
63399;BME280;49533;-34.520;150.798;2023-04-06T07:12:54;100135.75;;;24.33;53.67
63399;BME280;49533;-34.520;150.798;2023-04-06T07:15:21;100104.56;;;24.18;53.40
63399;BME280;49533;-34.520;150.798;2023-04-06T07:17:48;100087.22;;;24.03;53.48
63399;BME280;49533;-34.520;150.798;2023-04-06T07:20:15;100127.44;;;24.33;53.23
63399;BME280;49533;-34.520;150.798;2023-04-06T07:22:43;100141.63;;;24.42;53.38
63399;BME280;49533;-34.520;150.798;2023-04-06T07:25:11;100138.44;;;24.43;53.54
63399;BME280;49533;-34.520;150.798;2023-04-06T07:27:38;100112.44;;;24.23;53.42
63399;BME280;49533;-34.520;150.798;2023-04-06T07:30:05;100143.19;;;24.46;53.01
63399;BME280;49533;-34.520;150.798;2023-04-06T07:32:34;100131.31;;;24.42;53.24
63399;BME280;49533;-34.520;150.798;2023-04-06T07:35:02;100099.78;;;24.22;53.01
63399;BME280;49533;-34.520;150.798;2023-04-06T07:37:29;100098.56;;;24.26;52.87
63399;BME280;49533;-34.520;150.798;2023-04-06T07:39:56;100076.13;;;24.06;53.45
63399;BME280;49533;-34.520;150.798;2023-04-06T07:42:23;100089.50;;;24.19;53.08
63399;BME280;49533;-34.520;150.798;2023-04-06T07:44:50;100144.75;;;24.51;52.83
63399;BME280;49533;-34.520;150.798;2023-04-06T07:47:17;100078.41;;;24.19;52.95
63399;BME280;49533;-34.520;150.798;2023-04-06T07:49:44;100071.25;;;24.18;53.06
63399;BME280;49533;-34.520;150.798;2023-04-06T07:52:15;100064.59;;;24.08;53.09
63399;BME280;49533;-34.520;150.798;2023-04-06T07:54:45;100132.78;;;24.58;52.85
63399;BME280;49533;-34.520;150.798;2023-04-06T07:57:12;100147.91;;;24.53;53.23
63399;BME280;49533;-34.520;150.798;2023-04-06T07:59:39;100122.56;;;24.44;52.58
63399;BME280;49533;-34.520;150.798;2023-04-06T08:02:06;100108.78;;;24.33;53.23
63399;BME280;49533;-34.520;150.798;2023-04-06T08:04:34;100129.28;;;24.50;53.02
63399;BME280;49533;-34.520;150.798;2023-04-06T08:07:01;100092.63;;;24.24;53.01
63399;BME280;49533;-34.520;150.798;2023-04-06T08:09:28;100126.94;;;24.41;53.06
63399;BME280;49533;-34.520;150.798;2023-04-06T08:11:56;100128.84;;;24.51;52.86
63399;BME280;49533;-34.520;150.798;2023-04-06T08:14:23;100101.22;;;24.34;52.97
63399;BME280;49533;-34.520;150.798;2023-04-06T08:16:50;100132.00;;;24.54;52.57
63399;BME280;49533;-34.520;150.798;2023-04-06T08:19:17;100085.13;;;24.21;53.03
63399;BME280;49533;-34.520;150.798;2023-04-06T08:21:45;100122.97;;;24.42;52.86
63399;BME280;49533;-34.520;150.798;2023-04-06T08:24:14;100135.22;;;24.52;52.86
63399;BME280;49533;-34.520;150.798;2023-04-06T08:26:41;100056.03;;;23.92;53.08
63399;BME280;49533;-34.520;150.798;2023-04-06T08:29:09;100075.69;;;24.12;52.73
63399;BME280;49533;-34.520;150.798;2023-04-06T08:31:36;100085.19;;;24.14;52.92
63399;BME280;49533;-34.520;150.798;2023-04-06T08:34:04;100086.34;;;24.17;52.81
63399;BME280;49533;-34.520;150.798;2023-04-06T08:36:33;100075.34;;;24.06;52.67
63399;BME280;49533;-34.520;150.798;2023-04-06T08:39:01;100130.47;;;24.49;52.64
63399;BME280;49533;-34.520;150.798;2023-04-06T08:41:28;100112.31;;;24.37;52.88
63399;BME280;49533;-34.520;150.798;2023-04-06T08:44:00;100133.25;;;24.49;52.34
63399;BME280;49533;-34.520;150.798;2023-04-06T08:46:30;100076.41;;;24.16;52.37
63399;BME280;49533;-34.520;150.798;2023-04-06T08:48:58;100093.06;;;24.19;52.58
63399;BME280;49533;-34.520;150.798;2023-04-06T08:51:27;100132.91;;;24.47;52.48
63399;BME280;49533;-34.520;150.798;2023-04-06T08:53:56;100126.53;;;24.43;52.30
63399;BME280;49533;-34.520;150.798;2023-04-06T08:56:25;100145.19;;;24.42;52.49
63399;BME280;49533;-34.520;150.798;2023-04-06T08:58:53;100139.22;;;24.44;52.29
63399;BME280;49533;-34.520;150.798;2023-04-06T09:01:25;100125.88;;;24.32;52.38
63399;BME280;49533;-34.520;150.798;2023-04-06T09:03:56;100132.13;;;24.39;52.39
63399;BME280;49533;-34.520;150.798;2023-04-06T09:06:24;100134.91;;;24.39;52.40
63399;BME280;49533;-34.520;150.798;2023-04-06T09:08:53;100058.41;;;23.90;52.34
63399;BME280;49533;-34.520;150.798;2023-04-06T09:11:21;100142.44;;;24.39;52.33
63399;BME280;49533;-34.520;150.798;2023-04-06T09:13:50;100140.09;;;24.37;52.22
63399;BME280;49533;-34.520;150.798;2023-04-06T09:16:18;100144.84;;;24.37;52.34
63399;BME280;49533;-34.520;150.798;2023-04-06T09:18:47;100138.50;;;24.36;52.31
63399;BME280;49533;-34.520;150.798;2023-04-06T09:21:17;100126.38;;;24.16;52.42
63399;BME280;49533;-34.520;150.798;2023-04-06T09:23:45;100140.19;;;24.23;52.62
63399;BME280;49533;-34.520;150.798;2023-04-06T09:26:15;100137.84;;;24.21;52.59
63399;BME280;49533;-34.520;150.798;2023-04-06T09:28:45;100095.66;;;23.92;52.55
63399;BME280;49533;-34.520;150.798;2023-04-06T09:31:14;100061.34;;;23.68;52.74
63399;BME280;49533;-34.520;150.798;2023-04-06T09:33:44;100108.31;;;23.97;52.43
63399;BME280;49533;-34.520;150.798;2023-04-06T09:36:12;100139.47;;;24.15;52.30
63399;BME280;49533;-34.520;150.798;2023-04-06T09:38:55;100081.91;;;23.74;52.50
63399;BME280;49533;-34.520;150.798;2023-04-06T09:41:27;100070.09;;;23.63;52.71
63399;BME280;49533;-34.520;150.798;2023-04-06T09:44:07;100160.50;;;24.16;52.67
63399;BME280;49533;-34.520;150.798;2023-04-06T09:46:41;100158.91;;;24.15;52.68
63399;BME280;49533;-34.520;150.798;2023-04-06T09:49:09;100155.38;;;24.11;52.69
63399;BME280;49533;-34.520;150.798;2023-04-06T09:51:39;100135.66;;;23.95;52.60
63399;BME280;49533;-34.520;150.798;2023-04-06T09:54:07;100145.50;;;24.03;52.46
63399;BME280;49533;-34.520;150.798;2023-04-06T09:56:44;100104.09;;;23.74;52.46
63399;BME280;49533;-34.520;150.798;2023-04-06T09:59:20;100152.22;;;24.09;52.61
63399;BME280;49533;-34.520;150.798;2023-04-06T10:01:51;100095.41;;;23.76;52.67
63399;BME280;49533;-34.520;150.798;2023-04-06T10:04:33;100106.50;;;23.76;52.79
63399;BME280;49533;-34.520;150.798;2023-04-06T10:07:04;100134.50;;;23.92;52.59
63399;BME280;49533;-34.520;150.798;2023-04-06T10:09:33;100129.81;;;23.82;52.71
63399;BME280;49533;-34.520;150.798;2023-04-06T10:12:04;100153.91;;;23.92;52.58
63399;BME280;49533;-34.520;150.798;2023-04-06T10:14:34;100058.03;;;23.28;52.67
63399;BME280;49533;-34.520;150.798;2023-04-06T10:17:04;100176.47;;;23.98;52.82
63399;BME280;49533;-34.520;150.798;2023-04-06T10:19:49;100097.59;;;23.36;52.80
63399;BME280;49533;-34.520;150.798;2023-04-06T10:22:25;100147.41;;;23.50;53.45
63399;BME280;49533;-34.520;150.798;2023-04-06T10:24:53;100124.88;;;23.41;53.26
63399;BME280;49533;-34.520;150.798;2023-04-06T10:27:30;100136.75;;;23.41;53.17
63399;BME280;49533;-34.520;150.798;2023-04-06T10:30:05;100183.34;;;23.72;53.32
63399;BME280;49533;-34.520;150.798;2023-04-06T10:32:35;100181.38;;;23.72;53.17
63399;BME280;49533;-34.520;150.798;2023-04-06T10:35:08;100186.13;;;23.72;53.26
63399;BME280;49533;-34.520;150.798;2023-04-06T10:37:49;100133.19;;;23.41;53.63
63399;BME280;49533;-34.520;150.798;2023-04-06T10:40:24;100167.16;;;23.59;53.26
63399;BME280;49533;-34.520;150.798;2023-04-06T10:42:53;100133.63;;;23.36;52.96
63399;BME280;49533;-34.520;150.798;2023-04-06T10:45:23;100155.38;;;23.44;53.11
63399;BME280;49533;-34.520;150.798;2023-04-06T10:47:54;100184.16;;;23.69;53.16
63399;BME280;49533;-34.520;150.798;2023-04-06T10:50:22;100153.41;;;23.38;53.17
63399;BME280;49533;-34.520;150.798;2023-04-06T10:53:00;100178.28;;;23.56;52.60
63399;BME280;49533;-34.520;150.798;2023-04-06T10:55:28;100126.94;;;23.26;53.07
63399;BME280;49533;-34.520;150.798;2023-04-06T10:57:55;100133.22;;;23.34;53.10
63399;BME280;49533;-34.520;150.798;2023-04-06T11:00:23;100177.84;;;23.61;53.04
63399;BME280;49533;-34.520;150.798;2023-04-06T11:02:50;100162.47;;;23.49;53.23
63399;BME280;49533;-34.520;150.798;2023-04-06T11:05:17;100126.16;;;23.26;53.05
63399;BME280;49533;-34.520;150.798;2023-04-06T11:07:44;100183.00;;;23.59;53.33
63399;BME280;49533;-34.520;150.798;2023-04-06T11:10:12;100182.69;;;23.50;53.00
63399;BME280;49533;-34.520;150.798;2023-04-06T11:12:39;100186.59;;;23.56;52.97
63399;BME280;49533;-34.520;150.798;2023-04-06T11:15:06;100168.44;;;23.44;52.99
63399;BME280;49533;-34.520;150.798;2023-04-06T11:17:36;100132.50;;;23.22;53.22
63399;BME280;49533;-34.520;150.798;2023-04-06T11:20:09;100189.78;;;23.51;53.04
63399;BME280;49533;-34.520;150.798;2023-04-06T11:22:36;100178.31;;;23.49;52.92
63399;BME280;49533;-34.520;150.798;2023-04-06T11:25:07;100112.41;;;23.04;53.03
63399;BME280;49533;-34.520;150.798;2023-04-06T11:27:34;100146.72;;;23.28;52.97
63399;BME280;49533;-34.520;150.798;2023-04-06T11:30:02;100167.25;;;23.45;53.04
63399;BME280;49533;-34.520;150.798;2023-04-06T11:32:29;100118.31;;;23.10;53.08
63399;BME280;49533;-34.520;150.798;2023-04-06T11:34:58;100165.28;;;23.42;53.13
63399;BME280;49533;-34.520;150.798;2023-04-06T11:37:29;100148.69;;;23.31;53.11
63399;BME280;49533;-34.520;150.798;2023-04-06T11:39:56;100162.53;;;23.38;53.13
63399;BME280;49533;-34.520;150.798;2023-04-06T11:42:27;100120.69;;;23.08;53.13
63399;BME280;49533;-34.520;150.798;2023-04-06T11:44:56;100172.03;;;23.34;53.21
63399;BME280;49533;-34.520;150.798;2023-04-06T11:47:30;100150.34;;;23.21;53.22
63399;BME280;49533;-34.520;150.798;2023-04-06T11:50:06;100146.38;;;23.15;52.97
63399;BME280;49533;-34.520;150.798;2023-04-06T11:52:34;100133.78;;;23.04;53.31
63399;BME280;49533;-34.520;150.798;2023-04-06T11:55:11;100130.97;;;23.07;52.98
63399;BME280;49533;-34.520;150.798;2023-04-06T11:57:40;100097.78;;;22.86;53.10
63399;BME280;49533;-34.520;150.798;2023-04-06T12:00:08;100100.56;;;22.86;53.09
63399;BME280;49533;-34.520;150.798;2023-04-06T12:02:36;100166.16;;;23.25;53.25
63399;BME280;49533;-34.520;150.798;2023-04-06T12:05:05;100163.78;;;23.23;53.06
63399;BME280;49533;-34.520;150.798;2023-04-06T12:07:34;100148.78;;;23.10;53.39
63399;BME280;49533;-34.520;150.798;2023-04-06T12:10:03;100141.28;;;23.07;53.19
63399;BME280;49533;-34.520;150.798;2023-04-06T12:12:31;100123.50;;;22.93;53.37
63399;BME280;49533;-34.520;150.798;2023-04-06T12:14:58;100156.69;;;23.15;53.25
63399;BME280;49533;-34.520;150.798;2023-04-06T12:17:26;100113.22;;;22.87;52.94
63399;BME280;49533;-34.520;150.798;2023-04-06T12:19:53;100097.41;;;22.76;53.21
63399;BME280;49533;-34.520;150.798;2023-04-06T12:22:20;100143.25;;;23.03;53.20
63399;BME280;49533;-34.520;150.798;2023-04-06T12:24:47;100150.34;;;23.11;53.25